sensor_id;sensor_type;location;lat;lon;timestamp;temperature;humidity
42715;DHT22;28351;51.480;5.706;2022-07-09T00:01:38;17.00;99.90
42715;DHT22;28351;51.480;5.706;2022-07-09T00:04:03;16.90;99.90
42715;DHT22;28351;51.480;5.706;2022-07-09T00:06:29;16.90;99.90
42715;DHT22;28351;51.480;5.706;2022-07-09T00:08:57;16.80;99.90
42715;DHT22;28351;51.480;5.706;2022-07-09T00:11:23;16.80;99.90
42715;DHT22;28351;51.480;5.706;2022-07-09T00:13:48;16.80;99.90
42715;DHT22;28351;51.480;5.706;2022-07-09T00:16:14;16.80;99.90
42715;DHT22;28351;51.480;5.706;2022-07-09T00:18:39;16.70;99.90
42715;DHT22;28351;51.480;5.706;2022-07-09T00:21:05;16.70;99.90
42715;DHT22;28351;51.480;5.706;2022-07-09T00:23:31;16.70;99.90
42715;DHT22;28351;51.480;5.706;2022-07-09T00:25:56;16.60;99.90
42715;DHT22;28351;51.480;5.706;2022-07-09T00:28:22;16.60;99.90
42715;DHT22;28351;51.480;5.706;2022-07-09T00:30:48;16.60;99.90
42715;DHT22;28351;51.480;5.706;2022-07-09T00:33:13;16.60;99.90
42715;DHT22;28351;51.480;5.706;2022-07-09T00:35:39;16.60;99.90
42715;DHT22;28351;51.480;5.706;2022-07-09T00:38:04;16.60;99.90
42715;DHT22;28351;51.480;5.706;2022-07-09T00:40:30;16.50;99.90
42715;DHT22;28351;51.480;5.706;2022-07-09T00:42:56;16.50;99.90
42715;DHT22;28351;51.480;5.706;2022-07-09T00:45:21;16.40;99.90
42715;DHT22;28351;51.480;5.706;2022-07-09T00:47:47;16.40;99.90
42715;DHT22;28351;51.480;5.706;2022-07-09T00:50:13;16.30;99.90
42715;DHT22;28351;51.480;5.706;2022-07-09T00:52:39;16.30;99.90
42715;DHT22;28351;51.480;5.706;2022-07-09T00:55:06;16.20;99.90
42715;DHT22;28351;51.480;5.706;2022-07-09T00:57:33;16.20;99.90
42715;DHT22;28351;51.480;5.706;2022-07-09T01:00:00;16.20;99.90
42715;DHT22;28351;51.480;5.706;2022-07-09T01:02:26;16.20;99.90
42715;DHT22;28351;51.480;5.706;2022-07-09T01:04:51;16.10;99.90
42715;DHT22;28351;51.480;5.706;2022-07-09T01:07:17;16.10;99.90
42715;DHT22;28351;51.480;5.706;2022-07-09T01:09:43;16.00;99.90
42715;DHT22;28351;51.480;5.706;2022-07-09T01:12:11;16.00;99.90
42715;DHT22;28351;51.480;5.706;2022-07-09T01:14:37;16.00;99.90
42715;DHT22;28351;51.480;5.706;2022-07-09T01:17:04;16.00;99.90
42715;DHT22;28351;51.480;5.706;2022-07-09T01:19:32;16.10;99.90
42715;DHT22;28351;51.480;5.706;2022-07-09T01:21:58;16.10;99.90
42715;DHT22;28351;51.480;5.706;2022-07-09T01:24:25;16.00;99.90
42715;DHT22;28351;51.480;5.706;2022-07-09T01:26:54;16.00;99.90
42715;DHT22;28351;51.480;5.706;2022-07-09T01:29:21;16.00;99.90
42715;DHT22;28351;51.480;5.706;2022-07-09T01:31:46;16.00;99.90
42715;DHT22;28351;51.480;5.706;2022-07-09T01:34:12;15.90;99.90
42715;DHT22;28351;51.480;5.706;2022-07-09T01:36:38;16.00;99.90
42715;DHT22;28351;51.480;5.706;2022-07-09T01:39:04;15.90;99.90
42715;DHT22;28351;51.480;5.706;2022-07-09T01:41:32;15.90;99.90
42715;DHT22;28351;51.480;5.706;2022-07-09T01:43:58;15.90;99.90
42715;DHT22;28351;51.480;5.706;2022-07-09T01:46:26;15.90;99.90
42715;DHT22;28351;51.480;5.706;2022-07-09T01:48:52;15.80;99.90
42715;DHT22;28351;51.480;5.706;2022-07-09T01:51:17;15.80;99.90
42715;DHT22;28351;51.480;5.706;2022-07-09T01:53:43;15.80;99.90
42715;DHT22;28351;51.480;5.706;2022-07-09T01:56:10;15.80;99.90
42715;DHT22;28351;51.480;5.706;2022-07-09T01:58:37;15.80;99.90
42715;DHT22;28351;51.480;5.706;2022-07-09T02:01:06;15.70;99.90
42715;DHT22;28351;51.480;5.706;2022-07-09T02:03:35;15.70;99.90
42715;DHT22;28351;51.480;5.706;2022-07-09T02:06:00;15.60;99.90
42715;DHT22;28351;51.480;5.706;2022-07-09T02:08:26;15.50;99.90
42715;DHT22;28351;51.480;5.706;2022-07-09T02:10:52;15.50;99.90
42715;DHT22;28351;51.480;5.706;2022-07-09T02:13:17;15.50;99.90
42715;DHT22;28351;51.480;5.706;2022-07-09T02:15:43;15.50;99.90
42715;DHT22;28351;51.480;5.706;2022-07-09T02:18:09;15.50;99.90
42715;DHT22;28351;51.480;5.706;2022-07-09T02:20:35;15.50;99.90
42715;DHT22;28351;51.480;5.706;2022-07-09T02:23:00;15.50;99.90
42715;DHT22;28351;51.480;5.706;2022-07-09T02:25:26;15.40;99.90
42715;DHT22;28351;51.480;5.706;2022-07-09T02:27:53;15.40;99.90
42715;DHT22;28351;51.480;5.706;2022-07-09T02:30:18;15.40;99.90
42715;DHT22;28351;51.480;5.706;2022-07-09T02:32:44;15.40;99.90
42715;DHT22;28351;51.480;5.706;2022-07-09T02:35:09;15.40;99.90
42715;DHT22;28351;51.480;5.706;2022-07-09T02:37:35;15.40;99.90
42715;DHT22;28351;51.480;5.706;2022-07-09T02:40:05;15.30;99.90
42715;DHT22;28351;51.480;5.706;2022-07-09T02:42:30;15.40;99.90
42715;DHT22;28351;51.480;5.706;2022-07-09T02:44:56;15.20;99.90
42715;DHT22;28351;51.480;5.706;2022-07-09T02:47:21;15.30;99.90
42715;DHT22;28351;51.480;5.706;2022-07-09T02:49:47;15.20;99.90
42715;DHT22;28351;51.480;5.706;2022-07-09T02:52:13;15.20;99.90
42715;DHT22;28351;51.480;5.706;2022-07-09T02:54:38;15.10;99.90
42715;DHT22;28351;51.480;5.706;2022-07-09T02:57:04;15.10;99.90
42715;DHT22;28351;51.480;5.706;2022-07-09T02:59:30;15.10;99.90
42715;DHT22;28351;51.480;5.706;2022-07-09T03:01:55;15.10;99.90
42715;DHT22;28351;51.480;5.706;2022-07-09T03:04:21;15.10;99.90
42715;DHT22;28351;51.480;5.706;2022-07-09T03:06:46;15.10;99.90
42715;DHT22;28351;51.480;5.706;2022-07-09T03:09:13;15.10;99.90
42715;DHT22;28351;51.480;5.706;2022-07-09T03:11:38;15.10;99.90
42715;DHT22;28351;51.480;5.706;2022-07-09T03:14:06;15.10;99.90
42715;DHT22;28351;51.480;5.706;2022-07-09T03:16:32;15.10;99.90
42715;DHT22;28351;51.480;5.706;2022-07-09T03:18:57;15.10;99.90
42715;DHT22;28351;51.480;5.706;2022-07-09T03:21:23;15.00;99.90
42715;DHT22;28351;51.480;5.706;2022-07-09T03:23:48;15.00;99.90
42715;DHT22;28351;51.480;5.706;2022-07-09T03:26:15;15.00;99.90
42715;DHT22;28351;51.480;5.706;2022-07-09T03:28:41;15.00;99.90
42715;DHT22;28351;51.480;5.706;2022-07-09T03:31:07;15.00;99.90
42715;DHT22;28351;51.480;5.706;2022-07-09T03:33:32;15.00;99.90
42715;DHT22;28351;51.480;5.706;2022-07-09T03:35:58;15.00;99.90
42715;DHT22;28351;51.480;5.706;2022-07-09T03:38:24;15.00;99.90
42715;DHT22;28351;51.480;5.706;2022-07-09T03:40:50;14.90;99.90
42715;DHT22;28351;51.480;5.706;2022-07-09T03:43:16;14.90;99.90
42715;DHT22;28351;51.480;5.706;2022-07-09T03:45:42;14.90;99.90
42715;DHT22;28351;51.480;5.706;2022-07-09T03:48:07;14.90;99.90
42715;DHT22;28351;51.480;5.706;2022-07-09T03:50:36;14.90;99.90
42715;DHT22;28351;51.480;5.706;2022-07-09T03:53:01;14.90;99.90
42715;DHT22;28351;51.480;5.706;2022-07-09T03:55:27;14.90;99.90
42715;DHT22;28351;51.480;5.706;2022-07-09T03:57:55;14.90;99.90
42715;DHT22;28351;51.480;5.706;2022-07-09T04:00:21;14.90;99.90
42715;DHT22;28351;51.480;5.706;2022-07-09T04:02:47;14.90;99.90
42715;DHT22;28351;51.480;5.706;2022-07-09T04:05:12;15.00;99.90
42715;DHT22;28351;51.480;5.706;2022-07-09T04:07:38;15.00;99.90
42715;DHT22;28351;51.480;5.706;2022-07-09T04:10:05;15.00;99.90
42715;DHT22;28351;51.480;5.706;2022-07-09T04:12:33;15.00;99.90
42715;DHT22;28351;51.480;5.706;2022-07-09T04:14:59;15.00;99.90
42715;DHT22;28351;51.480;5.706;2022-07-09T04:17:25;14.90;99.90
42715;DHT22;28351;51.480;5.706;2022-07-09T04:19:50;14.90;99.90
42715;DHT22;28351;51.480;5.706;2022-07-09T04:22:16;14.90;99.90
42715;DHT22;28351;51.480;5.706;2022-07-09T04:24:41;14.90;99.90
42715;DHT22;28351;51.480;5.706;2022-07-09T04:27:07;15.00;99.90
42715;DHT22;28351;51.480;5.706;2022-07-09T04:29:32;15.00;99.90
42715;DHT22;28351;51.480;5.706;2022-07-09T04:31:58;15.00;99.90
42715;DHT22;28351;51.480;5.706;2022-07-09T04:34:24;15.00;99.90
42715;DHT22;28351;51.480;5.706;2022-07-09T04:36:49;15.00;99.90
42715;DHT22;28351;51.480;5.706;2022-07-09T04:39:15;15.10;99.90
42715;DHT22;28351;51.480;5.706;2022-07-09T04:41:40;15.10;99.90
42715;DHT22;28351;51.480;5.706;2022-07-09T04:44:06;15.20;99.90
42715;DHT22;28351;51.480;5.706;2022-07-09T04:46:32;15.20;99.90
42715;DHT22;28351;51.480;5.706;2022-07-09T04:48:58;15.30;99.90
42715;DHT22;28351;51.480;5.706;2022-07-09T04:51:26;15.40;99.90
42715;DHT22;28351;51.480;5.706;2022-07-09T04:53:52;15.40;99.90
42715;DHT22;28351;51.480;5.706;2022-07-09T04:56:17;15.40;99.90
42715;DHT22;28351;51.480;5.706;2022-07-09T04:58:44;15.40;99.90
42715;DHT22;28351;51.480;5.706;2022-07-09T05:01:21;15.40;99.90
42715;DHT22;28351;51.480;5.706;2022-07-09T05:03:47;15.40;99.90
42715;DHT22;28351;51.480;5.706;2022-07-09T05:06:17;15.50;99.90
42715;DHT22;28351;51.480;5.706;2022-07-09T05:08:43;15.60;99.90
42715;DHT22;28351;51.480;5.706;2022-07-09T05:11:09;15.70;99.90
42715;DHT22;28351;51.480;5.706;2022-07-09T05:13:37;15.80;99.90
42715;DHT22;28351;51.480;5.706;2022-07-09T05:16:06;15.90;99.90
42715;DHT22;28351;51.480;5.706;2022-07-09T05:18:32;16.00;99.90
42715;DHT22;28351;51.480;5.706;2022-07-09T05:20:58;16.20;99.90
42715;DHT22;28351;51.480;5.706;2022-07-09T05:23:23;16.30;99.90
42715;DHT22;28351;51.480;5.706;2022-07-09T05:25:49;16.70;99.90
42715;DHT22;28351;51.480;5.706;2022-07-09T05:28:15;17.00;99.90
42715;DHT22;28351;51.480;5.706;2022-07-09T05:30:41;17.50;99.90
42715;DHT22;28351;51.480;5.706;2022-07-09T05:33:07;17.70;99.90
42715;DHT22;28351;51.480;5.706;2022-07-09T05:35:33;17.90;99.90
42715;DHT22;28351;51.480;5.706;2022-07-09T05:37:59;18.00;99.90
42715;DHT22;28351;51.480;5.706;2022-07-09T05:40:25;18.20;99.90
42715;DHT22;28351;51.480;5.706;2022-07-09T05:42:51;18.30;99.90
42715;DHT22;28351;51.480;5.706;2022-07-09T05:45:16;18.40;99.90
42715;DHT22;28351;51.480;5.706;2022-07-09T05:47:42;18.50;99.90
42715;DHT22;28351;51.480;5.706;2022-07-09T05:50:08;18.60;99.90
42715;DHT22;28351;51.480;5.706;2022-07-09T05:52:34;18.80;99.90
42715;DHT22;28351;51.480;5.706;2022-07-09T05:55:00;18.80;99.90
42715;DHT22;28351;51.480;5.706;2022-07-09T05:57:28;19.00;99.90
42715;DHT22;28351;51.480;5.706;2022-07-09T05:59:54;19.10;99.90
42715;DHT22;28351;51.480;5.706;2022-07-09T06:02:21;19.20;99.90
42715;DHT22;28351;51.480;5.706;2022-07-09T06:04:47;19.30;99.90
42715;DHT22;28351;51.480;5.706;2022-07-09T06:07:12;19.40;99.90
42715;DHT22;28351;51.480;5.706;2022-07-09T06:09:38;19.40;99.90
42715;DHT22;28351;51.480;5.706;2022-07-09T06:12:04;19.40;99.90
42715;DHT22;28351;51.480;5.706;2022-07-09T06:14:30;19.50;99.90
42715;DHT22;28351;51.480;5.706;2022-07-09T06:16:56;19.60;99.90
42715;DHT22;28351;51.480;5.706;2022-07-09T06:19:22;19.50;99.90
42715;DHT22;28351;51.480;5.706;2022-07-09T06:21:47;19.30;99.90
42715;DHT22;28351;51.480;5.706;2022-07-09T06:24:13;19.20;99.90
42715;DHT22;28351;51.480;5.706;2022-07-09T06:26:39;19.20;99.90
42715;DHT22;28351;51.480;5.706;2022-07-09T06:29:05;19.20;99.90
42715;DHT22;28351;51.480;5.706;2022-07-09T06:31:30;19.30;99.90
42715;DHT22;28351;51.480;5.706;2022-07-09T06:33:56;19.30;99.90
42715;DHT22;28351;51.480;5.706;2022-07-09T06:36:23;19.40;99.90
42715;DHT22;28351;51.480;5.706;2022-07-09T06:38:49;19.50;99.90
42715;DHT22;28351;51.480;5.706;2022-07-09T06:41:33;19.60;99.90
42715;DHT22;28351;51.480;5.706;2022-07-09T06:43:59;19.80;99.90
42715;DHT22;28351;51.480;5.706;2022-07-09T06:46:24;19.90;99.90
42715;DHT22;28351;51.480;5.706;2022-07-09T06:48:50;19.90;99.90
42715;DHT22;28351;51.480;5.706;2022-07-09T06:51:15;20.00;99.90
42715;DHT22;28351;51.480;5.706;2022-07-09T06:53:41;20.10;99.90
42715;DHT22;28351;51.480;5.706;2022-07-09T06:56:07;20.10;99.90
42715;DHT22;28351;51.480;5.706;2022-07-09T06:58:32;20.30;99.90
42715;DHT22;28351;51.480;5.706;2022-07-09T07:00:58;20.40;99.90
42715;DHT22;28351;51.480;5.706;2022-07-09T07:03:24;20.10;99.90
42715;DHT22;28351;51.480;5.706;2022-07-09T07:05:49;20.00;99.90
42715;DHT22;28351;51.480;5.706;2022-07-09T07:08:15;20.00;99.90
42715;DHT22;28351;51.480;5.706;2022-07-09T07:10:40;20.00;99.90
42715;DHT22;28351;51.480;5.706;2022-07-09T07:13:06;20.10;99.90
42715;DHT22;28351;51.480;5.706;2022-07-09T07:15:31;20.00;99.90
42715;DHT22;28351;51.480;5.706;2022-07-09T07:17:57;20.00;99.90
42715;DHT22;28351;51.480;5.706;2022-07-09T07:20:22;20.30;99.90
42715;DHT22;28351;51.480;5.706;2022-07-09T07:22:50;20.40;99.90
42715;DHT22;28351;51.480;5.706;2022-07-09T07:25:20;20.50;99.90
42715;DHT22;28351;51.480;5.706;2022-07-09T07:27:47;20.70;99.90
42715;DHT22;28351;51.480;5.706;2022-07-09T07:30:13;20.70;99.90
42715;DHT22;28351;51.480;5.706;2022-07-09T07:32:38;20.70;99.90
42715;DHT22;28351;51.480;5.706;2022-07-09T07:35:04;20.80;99.90
42715;DHT22;28351;51.480;5.706;2022-07-09T07:37:30;20.80;99.90
42715;DHT22;28351;51.480;5.706;2022-07-09T07:39:57;21.00;99.90
42715;DHT22;28351;51.480;5.706;2022-07-09T07:42:25;21.10;99.90
42715;DHT22;28351;51.480;5.706;2022-07-09T07:44:51;21.10;99.90
42715;DHT22;28351;51.480;5.706;2022-07-09T07:47:16;21.30;99.90
42715;DHT22;28351;51.480;5.706;2022-07-09T07:49:42;21.60;99.90
42715;DHT22;28351;51.480;5.706;2022-07-09T07:52:08;21.80;99.90
42715;DHT22;28351;51.480;5.706;2022-07-09T07:54:33;22.00;99.90
42715;DHT22;28351;51.480;5.706;2022-07-09T07:56:59;22.20;99.90
42715;DHT22;28351;51.480;5.706;2022-07-09T07:59:24;22.40;99.90
42715;DHT22;28351;51.480;5.706;2022-07-09T08:01:50;22.30;99.90
42715;DHT22;28351;51.480;5.706;2022-07-09T08:04:16;22.30;99.90
42715;DHT22;28351;51.480;5.706;2022-07-09T08:06:41;22.40;99.90
42715;DHT22;28351;51.480;5.706;2022-07-09T08:09:07;22.80;99.90
42715;DHT22;28351;51.480;5.706;2022-07-09T08:11:33;22.90;99.90
42715;DHT22;28351;51.480;5.706;2022-07-09T08:13:59;23.10;99.90
42715;DHT22;28351;51.480;5.706;2022-07-09T08:16:24;23.10;99.90
42715;DHT22;28351;51.480;5.706;2022-07-09T08:18:50;23.20;99.90
42715;DHT22;28351;51.480;5.706;2022-07-09T08:21:16;23.40;99.90
42715;DHT22;28351;51.480;5.706;2022-07-09T08:23:41;23.40;99.90
42715;DHT22;28351;51.480;5.706;2022-07-09T08:26:20;23.40;99.90
42715;DHT22;28351;51.480;5.706;2022-07-09T08:28:47;23.40;99.90
42715;DHT22;28351;51.480;5.706;2022-07-09T08:31:13;23.20;99.90
42715;DHT22;28351;51.480;5.706;2022-07-09T08:33:39;23.30;99.90
42715;DHT22;28351;51.480;5.706;2022-07-09T08:36:04;23.30;99.90
42715;DHT22;28351;51.480;5.706;2022-07-09T08:38:30;22.80;99.90
42715;DHT22;28351;51.480;5.706;2022-07-09T08:40:59;22.90;99.90
42715;DHT22;28351;51.480;5.706;2022-07-09T08:43:26;23.00;99.90
42715;DHT22;28351;51.480;5.706;2022-07-09T08:45:54;23.10;99.90
42715;DHT22;28351;51.480;5.706;2022-07-09T08:48:20;22.90;99.90
42715;DHT22;28351;51.480;5.706;2022-07-09T08:50:48;23.10;99.90
42715;DHT22;28351;51.480;5.706;2022-07-09T08:53:17;23.30;99.90
42715;DHT22;28351;51.480;5.706;2022-07-09T08:55:43;23.60;99.90
42715;DHT22;28351;51.480;5.706;2022-07-09T08:58:13;24.00;99.90
42715;DHT22;28351;51.480;5.706;2022-07-09T09:00:40;23.90;99.90
42715;DHT22;28351;51.480;5.706;2022-07-09T09:03:05;24.00;99.90
42715;DHT22;28351;51.480;5.706;2022-07-09T09:05:31;24.20;99.90
42715;DHT22;28351;51.480;5.706;2022-07-09T09:07:57;24.20;99.90
42715;DHT22;28351;51.480;5.706;2022-07-09T09:10:27;24.20;99.90
42715;DHT22;28351;51.480;5.706;2022-07-09T09:12:56;24.20;99.90
42715;DHT22;28351;51.480;5.706;2022-07-09T09:15:22;24.40;99.90
42715;DHT22;28351;51.480;5.706;2022-07-09T09:17:48;24.90;99.90
42715;DHT22;28351;51.480;5.706;2022-07-09T09:20:14;25.00;99.90
42715;DHT22;28351;51.480;5.706;2022-07-09T09:22:51;25.00;99.90
42715;DHT22;28351;51.480;5.706;2022-07-09T09:25:20;25.20;99.90
42715;DHT22;28351;51.480;5.706;2022-07-09T09:27:59;25.20;99.90
42715;DHT22;28351;51.480;5.706;2022-07-09T09:30:27;25.20;99.90
42715;DHT22;28351;51.480;5.706;2022-07-09T09:35:21;24.90;99.90
42715;DHT22;28351;51.480;5.706;2022-07-09T09:37:47;25.00;99.90
42715;DHT22;28351;51.480;5.706;2022-07-09T09:40:13;25.00;99.90
42715;DHT22;28351;51.480;5.706;2022-07-09T09:42:40;24.80;99.90
42715;DHT22;28351;51.480;5.706;2022-07-09T09:45:11;24.40;99.90
42715;DHT22;28351;51.480;5.706;2022-07-09T09:47:38;24.60;99.90
42715;DHT22;28351;51.480;5.706;2022-07-09T09:50:04;25.00;99.90
42715;DHT22;28351;51.480;5.706;2022-07-09T09:52:32;25.40;99.90
42715;DHT22;28351;51.480;5.706;2022-07-09T09:54:59;25.30;99.90
42715;DHT22;28351;51.480;5.706;2022-07-09T09:57:25;25.10;99.90
42715;DHT22;28351;51.480;5.706;2022-07-09T09:59:53;24.50;99.90
42715;DHT22;28351;51.480;5.706;2022-07-09T10:02:20;24.40;99.90
42715;DHT22;28351;51.480;5.706;2022-07-09T10:04:46;24.30;99.90
42715;DHT22;28351;51.480;5.706;2022-07-09T10:07:13;24.10;99.90
42715;DHT22;28351;51.480;5.706;2022-07-09T10:09:40;23.60;99.90
42715;DHT22;28351;51.480;5.706;2022-07-09T10:12:06;23.40;99.90
42715;DHT22;28351;51.480;5.706;2022-07-09T10:14:36;23.60;99.90
42715;DHT22;28351;51.480;5.706;2022-07-09T10:17:13;23.70;99.90
42715;DHT22;28351;51.480;5.706;2022-07-09T10:19:50;24.20;99.90
42715;DHT22;28351;51.480;5.706;2022-07-09T10:22:15;24.70;99.90
42715;DHT22;28351;51.480;5.706;2022-07-09T10:24:44;25.10;99.90
42715;DHT22;28351;51.480;5.706;2022-07-09T10:27:11;25.20;99.90
42715;DHT22;28351;51.480;5.706;2022-07-09T10:29:59;25.40;99.90
42715;DHT22;28351;51.480;5.706;2022-07-09T10:32:29;25.60;99.90
42715;DHT22;28351;51.480;5.706;2022-07-09T10:35:05;26.00;99.90
42715;DHT22;28351;51.480;5.706;2022-07-09T10:40:03;25.80;99.90
42715;DHT22;28351;51.480;5.706;2022-07-09T10:42:29;25.40;99.90
42715;DHT22;28351;51.480;5.706;2022-07-09T10:44:55;25.20;99.90
42715;DHT22;28351;51.480;5.706;2022-07-09T10:47:20;25.20;99.90
42715;DHT22;28351;51.480;5.706;2022-07-09T10:49:46;25.50;99.90
42715;DHT22;28351;51.480;5.706;2022-07-09T10:52:11;25.60;99.90
42715;DHT22;28351;51.480;5.706;2022-07-09T10:54:47;25.30;99.90
42715;DHT22;28351;51.480;5.706;2022-07-09T10:57:14;25.60;99.90
42715;DHT22;28351;51.480;5.706;2022-07-09T10:59:45;25.60;99.90
42715;DHT22;28351;51.480;5.706;2022-07-09T11:02:21;24.90;99.90
42715;DHT22;28351;51.480;5.706;2022-07-09T11:04:51;24.40;99.90
42715;DHT22;28351;51.480;5.706;2022-07-09T11:07:24;24.20;99.90
42715;DHT22;28351;51.480;5.706;2022-07-09T11:09:51;24.00;99.90
42715;DHT22;28351;51.480;5.706;2022-07-09T11:12:17;23.90;99.90
42715;DHT22;28351;51.480;5.706;2022-07-09T11:14:44;24.40;99.90
42715;DHT22;28351;51.480;5.706;2022-07-09T11:17:14;25.70;99.90
42715;DHT22;28351;51.480;5.706;2022-07-09T11:19:41;27.10;99.90
42715;DHT22;28351;51.480;5.706;2022-07-09T11:22:07;27.30;99.90
42715;DHT22;28351;51.480;5.706;2022-07-09T11:24:32;26.70;99.90
42715;DHT22;28351;51.480;5.706;2022-07-09T11:27:02;26.50;99.90
42715;DHT22;28351;51.480;5.706;2022-07-09T11:29:28;26.70;99.90
42715;DHT22;28351;51.480;5.706;2022-07-09T11:31:54;26.90;99.90
42715;DHT22;28351;51.480;5.706;2022-07-09T11:34:20;27.30;99.90
42715;DHT22;28351;51.480;5.706;2022-07-09T11:36:53;28.20;99.90
42715;DHT22;28351;51.480;5.706;2022-07-09T11:39:30;27.50;99.90
42715;DHT22;28351;51.480;5.706;2022-07-09T11:41:57;26.60;99.90
42715;DHT22;28351;51.480;5.706;2022-07-09T11:44:28;27.00;99.90
42715;DHT22;28351;51.480;5.706;2022-07-09T11:49:34;27.00;99.90
42715;DHT22;28351;51.480;5.706;2022-07-09T11:52:00;28.00;99.90
42715;DHT22;28351;51.480;5.706;2022-07-09T11:54:28;27.90;99.90
42715;DHT22;28351;51.480;5.706;2022-07-09T11:56:54;28.60;99.90
42715;DHT22;28351;51.480;5.706;2022-07-09T11:59:29;29.40;99.90
42715;DHT22;28351;51.480;5.706;2022-07-09T12:02:00;28.50;99.90
42715;DHT22;28351;51.480;5.706;2022-07-09T12:04:29;26.80;99.90
42715;DHT22;28351;51.480;5.706;2022-07-09T12:06:55;25.90;99.90
42715;DHT22;28351;51.480;5.706;2022-07-09T12:09:29;26.80;99.90
42715;DHT22;28351;51.480;5.706;2022-07-09T12:11:55;28.90;99.90
42715;DHT22;28351;51.480;5.706;2022-07-09T12:14:21;30.00;99.90
42715;DHT22;28351;51.480;5.706;2022-07-09T12:16:46;30.00;99.90
42715;DHT22;28351;51.480;5.706;2022-07-09T12:19:12;28.40;99.90
42715;DHT22;28351;51.480;5.706;2022-07-09T12:21:37;27.30;99.90
42715;DHT22;28351;51.480;5.706;2022-07-09T12:24:03;26.30;99.90
42715;DHT22;28351;51.480;5.706;2022-07-09T12:26:28;26.10;99.90
42715;DHT22;28351;51.480;5.706;2022-07-09T12:28:56;28.10;99.90
42715;DHT22;28351;51.480;5.706;2022-07-09T12:31:22;29.50;99.90
42715;DHT22;28351;51.480;5.706;2022-07-09T12:33:47;31.00;99.90
42715;DHT22;28351;51.480;5.706;2022-07-09T12:36:13;31.20;98.30
42715;DHT22;28351;51.480;5.706;2022-07-09T12:38:39;29.40;99.50
42715;DHT22;28351;51.480;5.706;2022-07-09T12:41:05;29.10;99.20
42715;DHT22;28351;51.480;5.706;2022-07-09T12:43:30;28.70;99.40
42715;DHT22;28351;51.480;5.706;2022-07-09T12:45:56;28.60;99.00
42715;DHT22;28351;51.480;5.706;2022-07-09T12:48:22;29.30;99.50
42715;DHT22;28351;51.480;5.706;2022-07-09T12:50:47;30.30;98.30
42715;DHT22;28351;51.480;5.706;2022-07-09T12:53:13;30.90;98.50
42715;DHT22;28351;51.480;5.706;2022-07-09T12:55:39;30.70;97.50
42715;DHT22;28351;51.480;5.706;2022-07-09T12:58:04;30.90;98.20
42715;DHT22;28351;51.480;5.706;2022-07-09T13:00:30;31.60;96.60
42715;DHT22;28351;51.480;5.706;2022-07-09T13:02:55;32.00;96.30
42715;DHT22;28351;51.480;5.706;2022-07-09T13:05:21;32.00;96.70
42715;DHT22;28351;51.480;5.706;2022-07-09T13:07:46;32.30;96.00
42715;DHT22;28351;51.480;5.706;2022-07-09T13:10:12;32.70;95.70
42715;DHT22;28351;51.480;5.706;2022-07-09T13:12:37;32.80;94.80
42715;DHT22;28351;51.480;5.706;2022-07-09T13:15:03;33.00;94.50
42715;DHT22;28351;51.480;5.706;2022-07-09T13:17:29;32.20;93.70
42715;DHT22;28351;51.480;5.706;2022-07-09T13:19:55;31.70;94.50
42715;DHT22;28351;51.480;5.706;2022-07-09T13:22:20;31.20;94.30
42715;DHT22;28351;51.480;5.706;2022-07-09T13:24:46;31.20;94.80
42715;DHT22;28351;51.480;5.706;2022-07-09T13:27:11;31.60;94.30
42715;DHT22;28351;51.480;5.706;2022-07-09T13:29:38;31.30;94.60
42715;DHT22;28351;51.480;5.706;2022-07-09T13:32:04;31.00;94.10
42715;DHT22;28351;51.480;5.706;2022-07-09T13:34:30;31.00;94.40
42715;DHT22;28351;51.480;5.706;2022-07-09T13:36:56;31.20;94.00
42715;DHT22;28351;51.480;5.706;2022-07-09T13:39:21;30.80;93.50
42715;DHT22;28351;51.480;5.706;2022-07-09T13:41:47;30.70;94.00
42715;DHT22;28351;51.480;5.706;2022-07-09T13:44:13;31.20;93.40
42715;DHT22;28351;51.480;5.706;2022-07-09T13:46:38;31.10;92.80
42715;DHT22;28351;51.480;5.706;2022-07-09T13:49:04;32.00;92.80
42715;DHT22;28351;51.480;5.706;2022-07-09T13:51:30;32.10;92.40
42715;DHT22;28351;51.480;5.706;2022-07-09T13:53:55;31.90;92.80
42715;DHT22;28351;51.480;5.706;2022-07-09T13:56:21;31.80;92.40
42715;DHT22;28351;51.480;5.706;2022-07-09T13:58:47;31.60;92.50
42715;DHT22;28351;51.480;5.706;2022-07-09T14:01:13;31.90;91.70
42715;DHT22;28351;51.480;5.706;2022-07-09T14:03:39;31.70;91.20
42715;DHT22;28351;51.480;5.706;2022-07-09T14:06:05;31.50;91.90
42715;DHT22;28351;51.480;5.706;2022-07-09T14:08:31;31.50;91.60
42715;DHT22;28351;51.480;5.706;2022-07-09T14:10:56;31.30;91.30
42715;DHT22;28351;51.480;5.706;2022-07-09T14:13:26;31.10;91.90
42715;DHT22;28351;51.480;5.706;2022-07-09T14:15:54;32.90;91.40
42715;DHT22;28351;51.480;5.706;2022-07-09T14:18:20;33.80;90.70
42715;DHT22;28351;51.480;5.706;2022-07-09T14:20:45;34.20;90.10
42715;DHT22;28351;51.480;5.706;2022-07-09T14:23:11;33.10;90.40
42715;DHT22;28351;51.480;5.706;2022-07-09T14:25:36;31.30;90.50
42715;DHT22;28351;51.480;5.706;2022-07-09T14:28:02;32.20;90.50
42715;DHT22;28351;51.480;5.706;2022-07-09T14:30:28;32.50;90.40
42715;DHT22;28351;51.480;5.706;2022-07-09T14:32:53;33.20;90.90
42715;DHT22;28351;51.480;5.706;2022-07-09T14:35:19;33.50;90.20
42715;DHT22;28351;51.480;5.706;2022-07-09T14:37:45;34.90;89.50
42715;DHT22;28351;51.480;5.706;2022-07-09T14:40:10;34.10;88.20
42715;DHT22;28351;51.480;5.706;2022-07-09T14:42:36;34.00;88.10
42715;DHT22;28351;51.480;5.706;2022-07-09T14:45:05;34.00;89.10
42715;DHT22;28351;51.480;5.706;2022-07-09T14:47:30;34.10;87.80
42715;DHT22;28351;51.480;5.706;2022-07-09T14:49:56;33.10;87.50
42715;DHT22;28351;51.480;5.706;2022-07-09T14:52:21;33.00;86.60
42715;DHT22;28351;51.480;5.706;2022-07-09T14:54:50;33.30;87.60
42715;DHT22;28351;51.480;5.706;2022-07-09T14:57:19;33.70;87.50
42715;DHT22;28351;51.480;5.706;2022-07-09T14:59:44;33.30;87.30
42715;DHT22;28351;51.480;5.706;2022-07-09T15:02:10;33.10;86.60
42715;DHT22;28351;51.480;5.706;2022-07-09T15:04:36;31.80;88.00
42715;DHT22;28351;51.480;5.706;2022-07-09T15:07:02;30.90;88.80
42715;DHT22;28351;51.480;5.706;2022-07-09T15:09:27;29.80;90.20
42715;DHT22;28351;51.480;5.706;2022-07-09T15:11:53;30.70;91.40
42715;DHT22;28351;51.480;5.706;2022-07-09T15:14:19;31.20;88.60
42715;DHT22;28351;51.480;5.706;2022-07-09T15:16:45;31.70;89.20
42715;DHT22;28351;51.480;5.706;2022-07-09T15:19:10;31.70;89.90
42715;DHT22;28351;51.480;5.706;2022-07-09T15:21:36;31.50;89.50
42715;DHT22;28351;51.480;5.706;2022-07-09T15:24:03;31.50;89.10
42715;DHT22;28351;51.480;5.706;2022-07-09T15:26:32;31.80;88.70
42715;DHT22;28351;51.480;5.706;2022-07-09T15:28:57;31.70;90.40
42715;DHT22;28351;51.480;5.706;2022-07-09T15:31:23;30.60;89.40
42715;DHT22;28351;51.480;5.706;2022-07-09T15:33:49;30.80;89.60